33.9F
Current conditions from King Hill
Updated every 5 minutes
 
  Wednesday January 19, 2022

Observations for Westford

Westford

44° 37' 38"N, 73° 02' 29"W, Elevation 850 ft.
Eastern Time

Hourly observations for the last 72 hours

Date Time Temperature (°F) Humi-
dity

(%)
Wind
(mph)
Pressure Rain (in)
Air Dew 6 Hour 1 Hr 3 Hr 6 Hr Day
Alt
(in)
Sea
Level

(mb)
Max Min
19 21:00 34.7 27.3 74 S 3 G 16 29.82 1009.8 0.00
19 20:00 34.7 26.9 73 S 8 G 26 29.79 1008.9 0.00
19 19:00 33.9 26.5 33.9 28.7 74 S 8 G 18 29.79 1009.0 0.00
19 18:00 33.3 25.6 73 S 5 G 18 29.79 1008.8 0.00
19 17:00 32.6 24.9 73 SSE 6 G 22 29.78 1008.6 0.00
19 16:00 32.2 24.5 73 SSE 8 G 18 29.77 1008.2 0.00
19 15:00 31.3 23.7 73 SSE 8 G 24 29.76 1007.8 0.00
19 14:00 29.9 22.0 72 SSE 10 G 20 29.75 1007.6 0.00
19 13:00 28.7 20.8 28.8 9.9 72 SSE 13 G 24 29.75 1007.6 0.00
19 12:00 27.2 19.7 73 SSE 10 G 24 29.77 1008.2 0.00
19 11:00 24.4 17.6 75 S 12 G 29 29.79 1008.9 0.00
19 10:00 22.5 16.1 76 SSE 12 G 30 29.81 1009.4 0.00
19 09:00 19.0 13.0 77 S 12 G 21 29.84 1010.6 0.00
19 08:00 15.3 9.7 78 SSE 9 G 19 29.87 1011.7 0.00
19 07:00 9.9 4.4 9.9 -9.0 78 SSE 7 G 14 29.90 1012.6 0.00
19 06:00 7.6 0.5 72 SE 5 G 12 29.94 1013.9 0.00
19 05:00 -0.8 -5.2 81 Calm 30.03 1017.1 0.00
19 04:00 -3.9 -7.5 84 Calm 30.05 1017.8 0.00
19 03:00 -7.2 -10.8 84 Calm 30.08 1018.7 0.00
19 02:00 -7.9 -11.7 83 Calm 30.10 1019.3 0.00
19 01:00 -9.0 -13.0 1.0 -9.0 82 Calm 30.11 1019.8 0.00
19 00:00 -3.2 -8.3 78 NNE 1 G 4 30.12 1019.9 0.00
18 23:00 -6.2 -10.8 80 Calm 30.13 1020.3 0.00
18 22:00 -5.0 -9.3 81 NE 0 G 2 30.12 1020.1 0.00
18 21:00 -2.5 -7.9 77 NE 0 G 4 30.10 1019.3 0.00
18 20:00 -0.9 -7.8 72 Calm 30.09 1019.1 0.00
18 19:00 1.0 -6.5 9.7 0.8 70 NNW 0 G 1 30.09 1018.9 0.00
18 18:00 1.3 -6.5 69 WNW 2 G 7 30.06 1017.8 0.00
18 17:00 3.3 -5.8 65 W 1 G 9 30.01 1016.4 0.00
18 16:00 6.2 -3.4 64 W 4 G 12 29.97 1015.0 0.00
18 15:00 8.4 -1.6 63 W 6 G 13 29.94 1013.8 0.00
18 14:00 9.3 0.2 66 W 8 G 18 29.89 1012.1 0.00
18 13:00 9.3 -0.1 12.2 9.3 65 W 4 G 17 29.85 1010.8 0.00
18 12:00 9.9 1.4 68 W 9 G 19 29.81 1009.4 0.00
18 11:00 11.4 5.3 76 W 7 G 14 29.78 1008.5 0.00
18 10:00 11.9 6.6 79 WNW 4 G 15 29.74 1007.0 0.00
18 09:00 11.8 6.8 80 W 8 G 16 29.69 1005.5 0.00
18 08:00 12.0 7.3 81 WNW 7 G 16 29.65 1004.1 0.00
18 07:00 11.4 7.0 18.6 11.4 82 W 6 G 14 29.61 1002.8 0.00
18 06:00 12.7 8.2 82 W 4 G 15 29.57 1001.5 0.00
18 05:00 13.9 9.2 81 W 8 G 21 29.52 999.8 0.00
18 04:00 15.4 10.9 82 W 8 G 17 29.47 998.1 0.00
18 03:00 16.9 13.2 85 Calm 29.42 996.4 0.00
18 02:00 17.7 14.2 86 Calm 29.37 994.6 0.00
18 01:00 18.6 15.1 22.4 18.6 86 Calm 29.32 992.8 0.00
18 00:00 19.6 16.6 88 Calm 29.27 991.4 0.00
17 23:00 20.5 18.0 90 Calm 29.23 990.0 0.00
17 22:00 22.2 20.2 92 Calm 29.18 988.2 0.00
17 21:00 22.1 20.1 92 Calm 29.15 987.3 0.00
17 20:00 21.9 20.2 93 Calm 29.11 985.9 0.00
17 19:00 21.7 20.0 32.3 21.7 93 Calm 29.06 984.0 0.00
17 18:00 22.2 20.7 94 Calm 29.00 982.2 0.00
17 17:00 23.0 21.3 93 Calm 28.97 980.9 0.00
17 16:00 25.0 23.0 92 Calm 28.96 980.6 0.00
17 15:00 30.6 28.8 93 Calm 28.94 979.9 0.00
17 14:00 30.4 28.9 94 Calm 28.95 980.5 0.00
17 13:00 32.2 30.7 32.2 23.9 94 Calm 28.97 981.1 0.00
17 12:00 30.4 28.6 93 Calm 29.07 984.6 0.00
17 11:00 29.4 27.4 92 Calm 29.16 987.4 0.00
17 10:00 28.9 26.3 90 Calm 29.21 989.1 0.00
17 09:00 27.7 25.4 91 SSE 1 G 7 29.26 990.9 0.00
17 08:00 24.7 23.0 93 N 2 G 13 29.35 994.0 0.00
17 07:00 24.0 22.0 26.0 22.0 92 NE 0 G 2 29.47 997.8 0.00
17 06:00 23.2 21.0 91 NNE 1 G 5 29.57 1001.3 0.00
17 05:00 23.1 19.8 87 Calm 29.65 1004.2 0.00
17 04:00 25.4 19.8 79 ENE 1 G 9 29.73 1006.7 0.00
17 03:00 23.0 18.6 83 SSE 0 G 2 29.83 1010.0 0.00
17 02:00 22.3 17.6 82 SE 0 G 2 29.90 1012.6 0.00
17 01:00 23.6 15.3 23.8 13.8 70 SSE 5 G 19 29.96 1014.5 0.00
17 00:00 22.3 5.1 47 SE 1 G 11 29.99 1015.7 0.00
16 23:00 20.1 -2.0 37 SSE 3 G 11 30.05 1017.6 0.00
16 22:00 16.1 -2.5 43 SE 1 G 4 30.07 1018.3 0.00

Data generated by WxSolution Version 1.9.1.7, Build 2018.11.24.


 
 
Current Radar Loop:

Copyright © WestfordWeather.net 2007-2022. All rights reserved.